Time;durP1;ratioP1;P1;durP2;ratioP2;P2;SDS_P1;SDS_P2;PMS_P1;PMS_P2;Temp;Humidity;BMP_temperature;BMP_pressure;BME280_temperature;BME280_humidity;BME280_pressure;Samples;Min_cycle;Max_cycle;Signal;HPM_P1;HPM_P2
2022/04/11 00:01:47;;;;;;;;;;;5.50;99.90;;;;;;5067214;28;19929;-73
2022/04/11 00:04:13;;;;;;;;;;;5.50;99.90;;;;;;5050442;28;19924;-72
2022/04/11 00:06:40;;;;;;;;;;;5.50;99.90;;;;;;5067553;28;20358;-73
2022/04/11 00:09:07;;;;;;;;;;;5.50;99.90;;;;;;5069493;28;19925;-72
2022/04/11 00:11:34;;;;;;;;;;;5.60;99.90;;;;;;5076541;28;19931;-72
2022/04/11 00:14:04;;;;;;;;;;;5.60;99.90;;;;;;5068986;28;19929;-72
2022/04/11 00:16:31;;;;;;;;;;;5.60;99.90;;;;;;5067054;28;19932;-72
2022/04/11 00:18:58;;;;;;;;;;;5.60;99.90;;;;;;5067091;28;20349;-72
2022/04/11 00:21:25;;;;;;;;;;;5.60;99.90;;;;;;5067246;28;19925;-73
2022/04/11 00:23:51;;;;;;;;;;;5.60;99.90;;;;;;5066986;28;19928;-72
2022/04/11 00:26:18;;;;;;;;;;;5.60;99.90;;;;;;5067038;28;19932;-72
2022/04/11 00:28:45;;;;;;;;;;;5.60;99.90;;;;;;5066884;28;19929;-71
2022/04/11 00:31:13;;;;;;;;;;;5.60;99.90;;;;;;5050517;28;19925;-72
2022/04/11 00:33:40;;;;;;;;;;;5.60;99.90;;;;;;5066625;28;20363;-73
2022/04/11 00:36:07;;;;;;;;;;;5.60;99.90;;;;;;5050347;28;19931;-72
2022/04/11 00:38:34;;;;;;;;;;;5.70;99.90;;;;;;5066889;28;19925;-72
2022/04/11 00:41:01;;;;;;;;;;;5.70;99.90;;;;;;5066575;28;19960;-72
2022/04/11 00:43:31;;;;;;;;;;;5.70;99.90;;;;;;5066949;28;20454;-73
2022/04/11 00:45:59;;;;;;;;;;;5.70;99.90;;;;;;5066321;28;19925;-72
2022/04/11 00:48:27;;;;;;;;;;;5.70;99.90;;;;;;5066051;28;19925;-72
2022/04/11 00:50:54;;;;;;;;;;;5.70;99.90;;;;;;5066550;28;19970;-72
2022/04/11 00:53:22;;;;;;;;;;;5.70;99.90;;;;;;5049681;28;19967;-72
2022/04/11 00:55:49;;;;;;;;;;;5.70;99.90;;;;;;5066652;28;19929;-72
2022/04/11 00:58:16;;;;;;;;;;;5.70;99.90;;;;;;5066493;28;19974;-72
2022/04/11 01:00:43;;;;;;;;;;;5.70;99.90;;;;;;5066434;28;19925;-71
2022/04/11 01:03:10;;;;;;;;;;;5.80;99.90;;;;;;5066509;28;19924;-72
2022/04/11 01:05:38;;;;;;;;;;;5.80;99.90;;;;;;5066177;28;19931;-71
2022/04/11 01:08:06;;;;;;;;;;;5.90;99.90;;;;;;5066102;28;19929;-71
2022/04/11 01:10:33;;;;;;;;;;;6.00;99.90;;;;;;5066473;28;19932;-71
2022/04/11 01:13:00;;;;;;;;;;;6.00;99.90;;;;;;5066120;28;19926;-72
2022/04/11 01:15:28;;;;;;;;;;;6.00;99.90;;;;;;5066214;28;20395;-72
2022/04/11 01:17:55;;;;;;;;;;;6.00;99.90;;;;;;5066172;28;19925;-71
2022/04/11 01:20:22;;;;;;;;;;;6.00;99.90;;;;;;5066019;28;19925;-72
2022/04/11 01:22:52;;;;;;;;;;;6.00;99.90;;;;;;5066660;28;19973;-71
2022/04/11 01:25:20;;;;;;;;;;;6.00;99.90;;;;;;5066014;28;19925;-70
2022/04/11 01:27:48;;;;;;;;;;;6.00;99.90;;;;;;5066530;28;19925;-71
2022/04/11 01:30:16;;;;;;;;;;;6.00;99.90;;;;;;5066288;28;20016;-73
2022/04/11 01:32:45;;;;;;;;;;;6.00;99.90;;;;;;5066205;28;20316;-72
2022/04/11 01:35:19;;;;;;;;;;;6.00;99.90;;;;;;5066053;28;20015;-71
2022/04/11 01:37:46;;;;;;;;;;;6.00;99.90;;;;;;5066221;28;19978;-72
2022/04/11 01:40:14;;;;;;;;;;;5.90;99.90;;;;;;5066044;28;19924;-72
2022/04/11 01:42:42;;;;;;;;;;;5.90;99.90;;;;;;5066553;28;19929;-72
2022/04/11 01:45:10;;;;;;;;;;;5.90;99.90;;;;;;5064658;28;19964;-71
2022/04/11 01:47:39;;;;;;;;;;;5.90;99.90;;;;;;5048730;28;19924;-72
2022/04/11 01:50:07;;;;;;;;;;;5.80;99.90;;;;;;5049320;28;19925;-72
2022/04/11 01:52:33;;;;;;;;;;;5.80;99.90;;;;;;5065669;28;19925;-71
2022/04/11 01:55:01;;;;;;;;;;;5.80;99.90;;;;;;5065822;28;19932;-72
2022/04/11 01:57:29;;;;;;;;;;;5.80;99.90;;;;;;5066105;28;19925;-72
2022/04/11 01:59:56;;;;;;;;;;;5.80;99.90;;;;;;5065571;28;19929;-72
2022/04/11 02:02:23;;;;;;;;;;;5.80;99.90;;;;;;5065777;28;19924;-71
2022/04/11 02:04:50;;;;;;;;;;;5.70;99.90;;;;;;5065815;28;19964;-71
2022/04/11 02:07:17;;;;;;;;;;;5.70;99.90;;;;;;5066109;28;19925;-74
2022/04/11 02:09:44;;;;;;;;;;;5.70;99.90;;;;;;5065432;28;19925;-72
2022/04/11 02:12:11;;;;;;;;;;;5.70;99.90;;;;;;5049336;28;20004;-71
2022/04/11 02:14:39;;;;;;;;;;;5.60;99.90;;;;;;5065457;28;19928;-72
2022/04/11 02:17:06;;;;;;;;;;;5.60;99.90;;;;;;5066052;28;19925;-71
2022/04/11 02:19:33;;;;;;;;;;;5.60;99.90;;;;;;5082372;22;19936;-77
2022/04/11 02:22:00;;;;;;;;;;;5.60;99.90;;;;;;5049114;28;19935;-77
2022/04/11 02:24:26;;;;;;;;;;;5.60;99.90;;;;;;5048814;28;19960;-77
2022/04/11 02:26:53;;;;;;;;;;;5.60;99.90;;;;;;5049538;28;19925;-79
2022/04/11 02:29:20;;;;;;;;;;;5.50;99.90;;;;;;5048885;28;19944;-78
2022/04/11 02:31:48;;;;;;;;;;;5.50;99.90;;;;;;5049773;28;19925;-76
2022/04/11 02:34:16;;;;;;;;;;;5.50;99.90;;;;;;5049125;28;20431;-76
2022/04/11 02:36:43;;;;;;;;;;;5.40;99.90;;;;;;5051377;28;19925;-78
2022/04/11 02:39:09;;;;;;;;;;;5.40;99.90;;;;;;5052942;28;19925;-77
2022/04/11 02:41:37;;;;;;;;;;;5.40;99.90;;;;;;5052324;28;19932;-78
2022/04/11 02:44:04;;;;;;;;;;;5.40;99.90;;;;;;5052703;28;19925;-78
2022/04/11 02:46:32;;;;;;;;;;;5.40;99.90;;;;;;5052922;28;19924;-76
2022/04/11 02:49:01;;;;;;;;;;;5.30;99.90;;;;;;5052778;28;19925;-76
2022/04/11 02:51:33;;;;;;;;;;;5.30;99.90;;;;;;5052945;28;20384;-77
2022/04/11 02:54:07;;;;;;;;;;;5.30;99.90;;;;;;5052676;28;19933;-78
2022/04/11 02:56:35;;;;;;;;;;;5.30;99.90;;;;;;5052557;28;19925;-77
2022/04/11 02:59:02;;;;;;;;;;;5.30;99.90;;;;;;5052685;28;19940;-76
2022/04/11 03:01:30;;;;;;;;;;;5.30;99.90;;;;;;5052540;28;20369;-77
2022/04/11 03:03:59;;;;;;;;;;;5.30;99.90;;;;;;5052675;28;19925;-77
2022/04/11 03:06:35;;;;;;;;;;;5.30;99.90;;;;;;5052474;28;20321;-79
2022/04/11 03:09:02;;;;;;;;;;;5.30;99.90;;;;;;5052727;28;20285;-77
2022/04/11 03:11:34;;;;;;;;;;;5.30;99.90;;;;;;5052746;28;19932;-77
2022/04/11 03:14:02;;;;;;;;;;;5.30;99.90;;;;;;5052652;28;19925;-77
2022/04/11 03:16:30;;;;;;;;;;;5.30;99.90;;;;;;5052179;28;19977;-77
2022/04/11 03:18:57;;;;;;;;;;;5.30;99.90;;;;;;5052025;28;19964;-78
2022/04/11 03:21:24;;;;;;;;;;;5.30;99.90;;;;;;5052195;28;19925;-79
2022/04/11 03:24:04;;;;;;;;;;;5.20;99.90;;;;;;5051812;28;19925;-79
2022/04/11 03:26:31;;;;;;;;;;;5.20;99.90;;;;;;5052511;28;19936;-78
2022/04/11 03:28:58;;;;;;;;;;;5.20;99.90;;;;;;5051993;28;20380;-76
2022/04/11 03:31:25;;;;;;;;;;;5.20;99.90;;;;;;5052129;28;19925;-78
2022/04/11 03:33:54;;;;;;;;;;;5.20;99.90;;;;;;5051995;28;20454;-76
2022/04/11 03:36:21;;;;;;;;;;;5.20;99.90;;;;;;5052256;28;20400;-76
2022/04/11 03:38:48;;;;;;;;;;;5.10;99.90;;;;;;5052056;28;19934;-76
2022/04/11 03:41:20;;;;;;;;;;;5.10;99.90;;;;;;5052560;28;19929;-77
2022/04/11 03:43:47;;;;;;;;;;;5.10;99.90;;;;;;5052092;28;19971;-77
2022/04/11 03:46:14;;;;;;;;;;;5.00;99.90;;;;;;5053527;28;19952;-79
2022/04/11 03:48:42;;;;;;;;;;;5.00;99.90;;;;;;5033857;28;19925;-82
2022/04/11 03:51:09;;;;;;;;;;;4.90;99.90;;;;;;5032817;28;20388;-78
2022/04/11 03:53:36;;;;;;;;;;;4.90;99.90;;;;;;5032707;28;19925;-79
2022/04/11 03:56:04;;;;;;;;;;;4.80;99.90;;;;;;5034001;28;20373;-79
2022/04/11 03:58:33;;;;;;;;;;;4.80;99.90;;;;;;5032923;28;19929;-77
2022/04/11 04:01:01;;;;;;;;;;;4.70;99.90;;;;;;5032436;28;19925;-77
2022/04/11 04:03:29;;;;;;;;;;;4.70;99.90;;;;;;5032485;28;19925;-78
2022/04/11 04:06:06;;;;;;;;;;;4.60;99.90;;;;;;5032673;28;19932;-77
2022/04/11 04:08:38;;;;;;;;;;;4.60;99.90;;;;;;5034604;28;19929;-79
2022/04/11 04:11:19;;;;;;;;;;;4.50;99.90;;;;;;5034116;28;20022;-79
2022/04/11 04:14:08;;;;;;;;;;;4.50;99.90;;;;;;5032777;28;20439;-79
2022/04/11 04:16:39;;;;;;;;;;;4.50;99.90;;;;;;5033150;28;19925;-80
2022/04/11 04:19:09;;;;;;;;;;;4.40;99.90;;;;;;5032192;28;20020;-79
2022/04/11 04:21:36;;;;;;;;;;;4.40;99.90;;;;;;5032248;28;19925;-79
2022/04/11 04:24:04;;;;;;;;;;;4.30;99.90;;;;;;5032181;28;19953;-78
2022/04/11 04:26:34;;;;;;;;;;;4.30;99.90;;;;;;5032562;28;20336;-79
2022/04/11 04:29:03;;;;;;;;;;;4.20;99.90;;;;;;5031961;28;20415;-77
2022/04/11 04:31:36;;;;;;;;;;;4.20;99.90;;;;;;5032127;28;19925;-77
2022/04/11 04:34:03;;;;;;;;;;;4.10;99.90;;;;;;5031241;28;19972;-77
2022/04/11 04:36:30;;;;;;;;;;;4.10;99.90;;;;;;5032166;28;19960;-80
2022/04/11 04:39:00;;;;;;;;;;;4.10;99.90;;;;;;5031367;28;19925;-78
2022/04/11 04:41:28;;;;;;;;;;;4.10;99.90;;;;;;5031385;28;20439;-78
2022/04/11 04:43:55;;;;;;;;;;;4.10;99.90;;;;;;5031908;28;20389;-77
2022/04/11 04:46:23;;;;;;;;;;;4.00;99.90;;;;;;5031844;28;20012;-77
2022/04/11 04:48:56;;;;;;;;;;;4.00;99.90;;;;;;5031558;28;19925;-77
2022/04/11 04:51:24;;;;;;;;;;;4.00;99.90;;;;;;5031906;28;20033;-77
2022/04/11 04:54:00;;;;;;;;;;;4.00;99.90;;;;;;5032030;28;19925;-78
2022/04/11 04:56:31;;;;;;;;;;;4.00;99.90;;;;;;5031598;28;19960;-78
2022/04/11 04:59:01;;;;;;;;;;;4.00;99.90;;;;;;5031351;28;19925;-78
2022/04/11 05:01:28;;;;;;;;;;;4.00;99.90;;;;;;5030149;28;19925;-78
2022/04/11 05:03:57;;;;;;;;;;;4.00;99.90;;;;;;5029851;28;20487;-79
2022/04/11 05:06:30;;;;;;;;;;;4.00;99.90;;;;;;5031728;28;19925;-78
2022/04/11 05:08:57;;;;;;;;;;;4.00;99.90;;;;;;5031114;28;20435;-77
2022/04/11 05:11:24;;;;;;;;;;;4.00;99.90;;;;;;5031424;28;19925;-79
2022/04/11 05:13:51;;;;;;;;;;;4.00;99.90;;;;;;5031229;28;19982;-79
2022/04/11 05:16:18;;;;;;;;;;;4.10;99.90;;;;;;5032252;28;19925;-79
2022/04/11 05:18:46;;;;;;;;;;;4.10;99.90;;;;;;5032067;28;19932;-78
2022/04/11 05:21:14;;;;;;;;;;;4.10;99.90;;;;;;5028106;28;19926;-79
2022/04/11 05:23:41;;;;;;;;;;;4.10;99.90;;;;;;5011091;28;19925;-78
2022/04/11 05:26:09;;;;;;;;;;;4.20;99.90;;;;;;5012213;28;20025;-79
2022/04/11 05:28:38;;;;;;;;;;;4.20;99.90;;;;;;5011526;28;20476;-78
2022/04/11 05:31:05;;;;;;;;;;;4.20;99.90;;;;;;5011791;28;20033;-80
2022/04/11 05:33:36;;;;;;;;;;;4.20;99.90;;;;;;5012715;28;19979;-78
2022/04/11 05:36:07;;;;;;;;;;;4.30;99.90;;;;;;5017231;28;19926;-79
2022/04/11 05:38:35;;;;;;;;;;;4.30;99.90;;;;;;5045313;28;20290;-78
2022/04/11 05:41:02;;;;;;;;;;;4.40;99.90;;;;;;5037669;28;20376;-78
2022/04/11 05:43:52;;;;;;;;;;;4.50;99.90;;;;;;5028872;28;20035;-78
2022/04/11 05:46:23;;;;;;;;;;;4.60;99.90;;;;;;5032854;28;19933;-78
2022/04/11 05:48:59;;;;;;;;;;;4.70;99.90;;;;;;5027888;28;20392;-77
2022/04/11 05:51:27;;;;;;;;;;;4.80;99.90;;;;;;5018331;28;19964;-80
2022/04/11 05:53:57;;;;;;;;;;;4.90;99.90;;;;;;5031368;28;19933;-79
2022/04/11 05:56:23;;;;;;;;;;;5.10;99.90;;;;;;5032399;28;19932;-80
2022/04/11 05:58:51;;;;;;;;;;;5.20;99.90;;;;;;5030964;28;20405;-77
2022/04/11 06:01:17;;;;;;;;;;;5.30;99.90;;;;;;5031331;28;19940;-78
2022/04/11 06:03:44;;;;;;;;;;;5.30;99.90;;;;;;5031017;28;19932;-79
2022/04/11 06:06:11;;;;;;;;;;;5.40;99.90;;;;;;5032310;28;19931;-79
2022/04/11 06:08:38;;;;;;;;;;;5.50;99.90;;;;;;5032293;28;19925;-79
2022/04/11 06:11:07;;;;;;;;;;;5.70;99.90;;;;;;5043212;28;19949;-80
2022/04/11 06:13:33;;;;;;;;;;;5.70;99.90;;;;;;5056668;28;19925;-80
2022/04/11 06:16:01;;;;;;;;;;;5.90;99.90;;;;;;5056909;28;19932;-78
2022/04/11 06:18:29;;;;;;;;;;;5.90;99.90;;;;;;5047300;28;19978;-80
2022/04/11 06:20:56;;;;;;;;;;;6.00;99.90;;;;;;5031592;28;19940;-79
2022/04/11 06:23:23;;;;;;;;;;;6.10;99.90;;;;;;5033181;28;19929;-77
2022/04/11 06:25:50;;;;;;;;;;;6.10;99.90;;;;;;5033856;28;19987;-77
2022/04/11 06:28:19;;;;;;;;;;;6.20;99.90;;;;;;5033890;28;20008;-78
2022/04/11 06:30:46;;;;;;;;;;;6.30;99.90;;;;;;5033423;28;19949;-78
2022/04/11 06:33:13;;;;;;;;;;;6.40;99.90;;;;;;5034699;28;19925;-78
2022/04/11 06:35:40;;;;;;;;;;;6.50;99.90;;;;;;5035166;28;19925;-78
2022/04/11 06:38:09;;;;;;;;;;;6.50;99.90;;;;;;5035172;28;19948;-78
2022/04/11 06:40:36;;;;;;;;;;;6.60;99.90;;;;;;5035011;28;19925;-78
2022/04/11 06:43:03;;;;;;;;;;;6.70;99.90;;;;;;5034859;28;19925;-77
2022/04/11 06:45:58;;;;;;;;;;;6.80;99.90;;;;;;5035689;28;20336;-79
2022/04/11 06:48:25;;;;;;;;;;;6.90;99.90;;;;;;5034805;28;19925;-79
2022/04/11 06:50:53;;;;;;;;;;;6.90;99.90;;;;;;5035095;28;19946;-77
2022/04/11 06:53:20;;;;;;;;;;;7.00;99.90;;;;;;5034827;28;19932;-77
2022/04/11 06:55:47;;;;;;;;;;;7.00;99.90;;;;;;5034455;28;19926;-78
2022/04/11 06:58:14;;;;;;;;;;;7.10;99.90;;;;;;5034400;28;19931;-78
2022/04/11 07:00:41;;;;;;;;;;;7.10;99.90;;;;;;5033944;28;19980;-76
2022/04/11 07:03:10;;;;;;;;;;;7.10;99.90;;;;;;5033504;28;19925;-75
2022/04/11 07:05:37;;;;;;;;;;;7.20;99.90;;;;;;5033302;28;19925;-74
2022/04/11 07:08:04;;;;;;;;;;;7.20;99.90;;;;;;5032824;28;19925;-78
2022/04/11 07:10:31;;;;;;;;;;;7.30;99.90;;;;;;5034019;28;19925;-78
2022/04/11 07:12:58;;;;;;;;;;;7.40;99.90;;;;;;5034105;28;20029;-78
2022/04/11 07:15:25;;;;;;;;;;;7.40;99.90;;;;;;5034074;28;19932;-79
2022/04/11 07:17:52;;;;;;;;;;;7.50;99.90;;;;;;5035287;28;19925;-79
2022/04/11 07:20:20;;;;;;;;;;;7.60;99.90;;;;;;5034151;28;19925;-80
2022/04/11 07:22:47;;;;;;;;;;;7.70;99.90;;;;;;5033970;28;20332;-79
2022/04/11 07:25:14;;;;;;;;;;;7.70;99.90;;;;;;5034866;28;19925;-80
2022/04/11 07:27:41;;;;;;;;;;;7.70;99.90;;;;;;5034298;28;19925;-78
2022/04/11 07:30:08;;;;;;;;;;;7.80;99.90;;;;;;5034328;28;19932;-80
2022/04/11 07:32:35;;;;;;;;;;;7.90;99.90;;;;;;5034787;28;19932;-79
2022/04/11 07:35:02;;;;;;;;;;;7.90;99.90;;;;;;5036708;28;19933;-81
2022/04/11 07:37:33;;;;;;;;;;;8.00;99.90;;;;;;5034737;28;19940;-79
2022/04/11 07:39:59;;;;;;;;;;;8.00;99.90;;;;;;5035131;28;20344;-79
2022/04/11 07:42:26;;;;;;;;;;;8.20;99.90;;;;;;5035429;28;20359;-81
2022/04/11 07:44:53;;;;;;;;;;;8.30;99.90;;;;;;5036199;28;20020;-78
2022/04/11 07:47:20;;;;;;;;;;;8.40;99.90;;;;;;5036658;28;19929;-80
2022/04/11 07:49:47;;;;;;;;;;;8.40;99.90;;;;;;5035799;28;20343;-79
2022/04/11 07:52:13;;;;;;;;;;;8.40;99.90;;;;;;5036483;28;19929;-79
2022/04/11 07:54:42;;;;;;;;;;;8.50;99.90;;;;;;5035479;28;19929;-78
2022/04/11 07:57:09;;;;;;;;;;;8.70;99.90;;;;;;5035509;28;19960;-79
2022/04/11 07:59:36;;;;;;;;;;;8.70;99.90;;;;;;5034006;28;19929;-81
2022/04/11 08:02:02;;;;;;;;;;;8.80;99.90;;;;;;5033655;28;19925;-79
2022/04/11 08:04:29;;;;;;;;;;;8.80;99.90;;;;;;5034220;28;19952;-79
2022/04/11 08:06:56;;;;;;;;;;;8.90;99.90;;;;;;5033787;28;19925;-80
2022/04/11 08:09:23;;;;;;;;;;;9.00;99.90;;;;;;5033681;28;19925;-79
2022/04/11 08:11:51;;;;;;;;;;;9.10;99.90;;;;;;5034164;28;19925;-79
2022/04/11 08:14:18;;;;;;;;;;;9.20;99.90;;;;;;5066325;28;20368;-80
2022/04/11 08:16:45;;;;;;;;;;;9.30;99.90;;;;;;5066412;28;19950;-80
2022/04/11 08:19:12;;;;;;;;;;;9.30;99.90;;;;;;5066057;28;19932;-79
2022/04/11 08:21:38;;;;;;;;;;;9.40;99.90;;;;;;5066898;28;20381;-81
2022/04/11 08:24:06;;;;;;;;;;;9.50;99.90;;;;;;5068192;28;19925;-80
2022/04/11 08:26:32;;;;;;;;;;;9.60;99.90;;;;;;5069672;28;20280;-79
2022/04/11 08:29:00;;;;;;;;;;;9.60;99.90;;;;;;5069374;28;19926;-80
2022/04/11 08:31:27;;;;;;;;;;;9.70;99.90;;;;;;5069426;28;19987;-81
2022/04/11 08:33:54;;;;;;;;;;;9.80;99.90;;;;;;5067363;28;19957;-79
2022/04/11 08:36:21;;;;;;;;;;;9.90;99.90;;;;;;5069066;28;19929;-79
2022/04/11 08:38:48;;;;;;;;;;;10.00;99.90;;;;;;5069898;28;19929;-79
2022/04/11 08:41:17;;;;;;;;;;;10.00;99.90;;;;;;5067683;28;20020;-80
2022/04/11 08:43:45;;;;;;;;;;;10.00;99.90;;;;;;5056141;28;19930;-78
2022/04/11 08:46:16;;;;;;;;;;;10.10;99.90;;;;;;5031230;28;20365;-77
2022/04/11 08:48:43;;;;;;;;;;;10.20;99.90;;;;;;5032770;28;19929;-80
2022/04/11 08:51:10;;;;;;;;;;;10.30;99.90;;;;;;5035259;28;20384;-80
2022/04/11 08:53:37;;;;;;;;;;;10.40;99.90;;;;;;5035235;28;19936;-79
2022/04/11 08:56:04;;;;;;;;;;;10.40;99.90;;;;;;5036236;28;20312;-80
2022/04/11 08:58:31;;;;;;;;;;;10.60;99.90;;;;;;5035716;28;19925;-79
2022/04/11 09:00:59;;;;;;;;;;;10.80;99.90;;;;;;5036973;28;19925;-79
2022/04/11 09:03:27;;;;;;;;;;;10.80;99.90;;;;;;5036877;28;19925;-80
2022/04/11 09:06:14;;;;;;;;;;;11.00;99.90;;;;;;5036691;28;19925;-80
2022/04/11 09:08:42;;;;;;;;;;;11.10;99.90;;;;;;5035700;28;19964;-80
2022/04/11 09:11:09;;;;;;;;;;;11.20;99.90;;;;;;5035310;28;19929;-81
2022/04/11 09:13:49;;;;;;;;;;;11.20;99.90;;;;;;5034972;28;20024;-80
2022/04/11 09:16:16;;;;;;;;;;;11.20;99.90;;;;;;5031786;28;19925;-79
2022/04/11 09:18:49;;;;;;;;;;;11.30;99.90;;;;;;5031315;28;20289;-79
2022/04/11 09:21:16;;;;;;;;;;;11.40;99.90;;;;;;5031426;28;20312;-81
2022/04/11 09:23:43;;;;;;;;;;;11.50;99.90;;;;;;5033607;28;19925;-80
2022/04/11 09:26:17;;;;;;;;;;;11.70;99.90;;;;;;5031090;28;19929;-79
2022/04/11 09:28:44;;;;;;;;;;;11.60;99.90;;;;;;5033713;28;19925;-81
2022/04/11 09:31:10;;;;;;;;;;;11.70;99.90;;;;;;5031403;28;20385;-80
2022/04/11 09:33:38;;;;;;;;;;;11.80;99.90;;;;;;5025568;28;20281;-80
2022/04/11 09:36:07;;;;;;;;;;;11.90;99.90;;;;;;5034972;28;19975;-80
2022/04/11 09:38:37;;;;;;;;;;;12.00;99.90;;;;;;5033157;28;19925;-80
2022/04/11 09:41:04;;;;;;;;;;;12.20;99.90;;;;;;5035973;28;20396;-80
2022/04/11 09:43:31;;;;;;;;;;;12.30;99.90;;;;;;5038278;28;19925;-81
2022/04/11 09:46:00;;;;;;;;;;;12.30;99.90;;;;;;5037228;28;19925;-81
2022/04/11 09:48:27;;;;;;;;;;;12.30;99.90;;;;;;5036201;28;20016;-81
2022/04/11 09:50:55;;;;;;;;;;;12.30;99.90;;;;;;5038201;28;19928;-81
2022/04/11 09:53:24;;;;;;;;;;;12.30;99.90;;;;;;5038518;28;19925;-80
2022/04/11 09:55:52;;;;;;;;;;;12.40;99.90;;;;;;5018913;28;19925;-80
2022/04/11 09:58:20;;;;;;;;;;;12.50;99.90;;;;;;5019111;28;19926;-81
2022/04/11 10:00:47;;;;;;;;;;;12.60;99.90;;;;;;5018077;28;19925;-80
2022/04/11 10:03:14;;;;;;;;;;;12.60;99.90;;;;;;5017684;28;19929;-79
2022/04/11 10:05:41;;;;;;;;;;;12.60;99.90;;;;;;5018956;28;19929;-80
2022/04/11 10:08:08;;;;;;;;;;;12.70;99.90;;;;;;5057879;28;19924;-80
2022/04/11 10:10:39;;;;;;;;;;;12.80;99.90;;;;;;5058477;28;19928;-80
2022/04/11 10:13:06;;;;;;;;;;;13.10;99.90;;;;;;5058472;28;20380;-79
2022/04/11 10:15:34;;;;;;;;;;;13.20;99.90;;;;;;5056399;28;19956;-80
2022/04/11 10:18:01;;;;;;;;;;;13.30;99.90;;;;;;5058306;28;19970;-81
2022/04/11 10:20:28;;;;;;;;;;;13.30;99.90;;;;;;5036910;28;19925;-79
2022/04/11 10:22:56;;;;;;;;;;;13.30;99.90;;;;;;5038091;28;19929;-81
2022/04/11 10:25:24;;;;;;;;;;;13.30;99.90;;;;;;5037682;28;19926;-79
2022/04/11 10:28:06;;;;;;;;;;;13.40;99.90;;;;;;5037676;28;19932;-79
2022/04/11 10:30:34;;;;;;;;;;;13.40;99.90;;;;;;5035812;28;20375;-80
2022/04/11 10:33:01;;;;;;;;;;;13.30;99.90;;;;;;5037848;28;20019;-80
2022/04/11 10:35:38;;;;;;;;;;;13.50;99.90;;;;;;5037733;28;20278;-79
2022/04/11 10:38:06;;;;;;;;;;;13.60;99.90;;;;;;5039119;28;19926;-81
2022/04/11 10:40:33;;;;;;;;;;;13.70;99.90;;;;;;5039396;28;19929;-81
2022/04/11 10:43:13;;;;;;;;;;;13.60;99.90;;;;;;5048133;28;19936;-80
2022/04/11 10:45:42;;;;;;;;;;;13.60;99.90;;;;;;5058822;28;19929;-81
2022/04/11 10:48:10;;;;;;;;;;;13.90;99.90;;;;;;5059152;28;19931;-81
2022/04/11 10:50:38;;;;;;;;;;;14.30;99.90;;;;;;5057894;28;20392;-81
2022/04/11 10:53:17;;;;;;;;;;;14.30;99.90;;;;;;5059776;28;19928;-81
2022/04/11 10:55:54;;;;;;;;;;;14.50;99.90;;;;;;5059456;28;19925;-81
2022/04/11 10:58:22;;;;;;;;;;;14.60;99.90;;;;;;5057946;28;19929;-81
2022/04/11 11:00:51;;;;;;;;;;;14.70;99.90;;;;;;5054845;28;20015;-79
2022/04/11 11:03:18;;;;;;;;;;;14.80;99.90;;;;;;5042330;28;19968;-80
2022/04/11 11:05:48;;;;;;;;;;;14.80;99.90;;;;;;5038479;28;19925;-82
2022/04/11 11:08:28;;;;;;;;;;;15.10;99.90;;;;;;5038701;28;19925;-80
2022/04/11 11:10:56;;;;;;;;;;;15.40;99.90;;;;;;5037193;28;19932;-80
2022/04/11 11:13:23;;;;;;;;;;;15.50;99.90;;;;;;5068372;28;19933;-82
2022/04/11 11:15:52;;;;;;;;;;;15.70;99.90;;;;;;5038264;28;19925;-81
2022/04/11 11:18:19;;;;;;;;;;;15.70;99.90;;;;;;5036315;28;20023;-81
2022/04/11 11:20:50;;;;;;;;;;;15.80;99.90;;;;;;5052938;28;19975;-81
2022/04/11 11:23:21;;;;;;;;;;;15.80;99.90;;;;;;5038715;28;19925;-81
2022/04/11 11:25:49;;;;;;;;;;;15.80;99.90;;;;;;5037956;28;19925;-82
2022/04/11 11:28:15;;;;;;;;;;;15.90;99.90;;;;;;5037664;28;19925;-81
2022/04/11 11:30:42;;;;;;;;;;;15.80;99.90;;;;;;5036771;28;19935;-81
2022/04/11 11:33:13;;;;;;;;;;;15.90;99.90;;;;;;5036552;28;19925;-81
2022/04/11 11:35:47;;;;;;;;;;;15.90;99.90;;;;;;5037274;28;20351;-80
2022/04/11 11:38:14;;;;;;;;;;;16.10;99.90;;;;;;5037300;28;19979;-81
2022/04/11 11:40:51;;;;;;;;;;;16.20;99.90;;;;;;5037398;28;20001;-80
2022/04/11 11:43:18;;;;;;;;;;;16.40;99.90;;;;;;5034514;28;19928;-80
2022/04/11 11:45:45;;;;;;;;;;;17.00;99.90;;;;;;5035219;28;19925;-82
2022/04/11 11:48:23;;;;;;;;;;;19.20;99.90;;;;;;5036166;28;19925;-82
2022/04/11 11:50:51;;;;;;;;;;;20.40;99.90;;;;;;5036725;28;19929;-81
2022/04/11 11:53:18;;;;;;;;;;;21.40;99.90;;;;;;5039623;28;19925;-82
2022/04/11 11:55:52;;;;;;;;;;;22.10;99.90;;;;;;5037087;28;20012;-82
2022/04/11 11:58:19;;;;;;;;;;;22.80;99.90;;;;;;5037216;28;19968;-82
2022/04/11 12:00:47;;;;;;;;;;;22.90;99.90;;;;;;5036589;28;19929;-82
2022/04/11 12:06:01;;;;;;;;;;;23.20;99.90;;;;;;5041706;28;20299;-81
2022/04/11 12:08:30;;;;;;;;;;;22.90;99.90;;;;;;5040315;28;19925;-80
2022/04/11 12:10:58;;;;;;;;;;;22.90;99.90;;;;;;5038413;28;19988;-80
2022/04/11 12:13:25;;;;;;;;;;;23.30;99.90;;;;;;5041396;28;19947;-79
2022/04/11 12:15:52;;;;;;;;;;;23.30;99.90;;;;;;5042649;28;19925;-81
2022/04/11 12:18:19;;;;;;;;;;;23.10;99.90;;;;;;5041358;28;19933;-80
2022/04/11 12:20:47;;;;;;;;;;;23.20;99.90;;;;;;5040506;28;19932;-82
2022/04/11 12:23:17;;;;;;;;;;;23.10;99.90;;;;;;5038828;28;19963;-80
2022/04/11 12:25:51;;;;;;;;;;;22.80;99.90;;;;;;5039301;28;19992;-82
2022/04/11 12:28:19;;;;;;;;;;;23.10;99.90;;;;;;5037145;28;20369;-81
2022/04/11 12:30:46;;;;;;;;;;;22.90;99.90;;;;;;5038984;28;19925;-81
2022/04/11 12:33:28;;;;;;;;;;;22.70;99.90;;;;;;5035070;28;19925;-82
2022/04/11 12:36:04;;;;;;;;;;;22.70;99.90;;;;;;5036962;28;19925;-81
2022/04/11 12:38:40;;;;;;;;;;;23.00;99.90;;;;;;5037861;28;19928;-81
2022/04/11 12:41:09;;;;;;;;;;;22.90;99.90;;;;;;5036671;28;20442;-81
2022/04/11 12:43:51;;;;;;;;;;;23.20;99.90;;;;;;5032002;28;19931;-82
2022/04/11 12:46:23;;;;;;;;;;;22.80;99.90;;;;;;5036824;28;20004;-81
2022/04/11 12:48:56;;;;;;;;;;;22.70;99.90;;;;;;5036947;28;20384;-81
2022/04/11 12:51:24;;;;;;;;;;;23.10;99.90;;;;;;5038118;28;19997;-81
2022/04/11 12:53:52;;;;;;;;;;;23.50;99.90;;;;;;5036257;28;19929;-81
2022/04/11 12:56:20;;;;;;;;;;;23.00;99.90;;;;;;5035524;28;19925;-83
2022/04/11 12:58:46;;;;;;;;;;;22.70;99.90;;;;;;5031063;28;19925;-81
2022/04/11 13:01:13;;;;;;;;;;;21.70;99.90;;;;;;5035206;28;19925;-82
2022/04/11 13:03:40;;;;;;;;;;;21.40;99.90;;;;;;5033833;28;20294;-82
2022/04/11 13:06:07;;;;;;;;;;;21.20;99.90;;;;;;5035428;28;19925;-81
2022/04/11 13:08:34;;;;;;;;;;;21.50;99.90;;;;;;5035459;28;19932;-82
2022/04/11 13:11:03;;;;;;;;;;;21.90;99.90;;;;;;5035238;28;19972;-82
2022/04/11 13:13:33;;;;;;;;;;;22.30;99.90;;;;;;5068988;28;19929;-81
2022/04/11 13:18:40;;;;;;;;;;;21.90;99.90;;;;;;5002764;28;19979;-82
2022/04/11 13:21:07;;;;;;;;;;;21.70;99.90;;;;;;5069022;28;19932;-81
2022/04/11 13:23:33;;;;;;;;;;;22.00;99.90;;;;;;5069154;28;19937;-81
2022/04/11 13:26:02;;;;;;;;;;;22.10;99.90;;;;;;5069331;28;19932;-81
2022/04/11 13:28:29;;;;;;;;;;;22.20;99.90;;;;;;5058923;28;19940;-82
2022/04/11 13:30:55;;;;;;;;;;;22.50;99.90;;;;;;5034438;28;19925;-81
2022/04/11 13:33:22;;;;;;;;;;;22.60;99.90;;;;;;5036650;28;20012;-81
2022/04/11 13:35:49;;;;;;;;;;;22.30;99.90;;;;;;5037779;28;19925;-82
2022/04/11 13:38:16;;;;;;;;;;;22.00;99.90;;;;;;5037291;28;20290;-81
2022/04/11 13:40:43;;;;;;;;;;;21.60;99.90;;;;;;5036980;28;20020;-81
2022/04/11 13:43:11;;;;;;;;;;;21.40;99.90;;;;;;5038001;28;19962;-81
2022/04/11 13:45:38;;;;;;;;;;;21.80;99.90;;;;;;5035887;28;19933;-81
2022/04/11 13:48:05;;;;;;;;;;;21.60;99.90;;;;;;5037188;28;19933;-81
2022/04/11 13:50:32;;;;;;;;;;;22.50;99.90;;;;;;5032532;28;20293;-82
2022/04/11 13:52:59;;;;;;;;;;;22.50;99.90;;;;;;5035384;28;19929;-82
2022/04/11 13:55:25;;;;;;;;;;;22.20;99.90;;;;;;5027759;28;19926;-81
2022/04/11 13:57:52;;;;;;;;;;;21.90;99.90;;;;;;5032819;28;19925;-81
2022/04/11 14:00:21;;;;;;;;;;;22.20;99.90;;;;;;5019933;28;20374;-82
2022/04/11 14:02:48;;;;;;;;;;;22.30;99.90;;;;;;5036451;28;20020;-82
2022/04/11 14:05:14;;;;;;;;;;;22.20;99.90;;;;;;5036830;28;19925;-82
2022/04/11 14:07:42;;;;;;;;;;;22.40;99.90;;;;;;5034794;28;20347;-81
2022/04/11 14:10:09;;;;;;;;;;;22.80;99.90;;;;;;5032454;28;20028;-81
2022/04/11 14:12:36;;;;;;;;;;;23.20;99.90;;;;;;5035939;28;19925;-81
2022/04/11 14:15:03;;;;;;;;;;;23.50;99.90;;;;;;5035682;28;20511;-82
2022/04/11 14:17:31;;;;;;;;;;;24.00;99.90;;;;;;5027225;28;20019;-81
2022/04/11 14:19:58;;;;;;;;;;;24.40;99.90;;;;;;5067098;22;19931;-75
2022/04/11 14:22:24;;;;;;;;;;;24.40;99.90;;;;;;5070187;28;20222;-74
2022/04/11 14:24:51;;;;;;;;;;;24.10;99.90;;;;;;5070364;28;19924;-76
2022/04/11 14:27:18;;;;;;;;;;;24.30;99.90;;;;;;5071302;28;19953;-75
2022/04/11 14:29:45;;;;;;;;;;;23.60;99.10;;;;;;5070566;28;19928;-75
2022/04/11 14:32:11;;;;;;;;;;;23.60;99.40;;;;;;5072756;28;19974;-76
2022/04/11 14:34:40;;;;;;;;;;;23.30;99.90;;;;;;5072718;28;19932;-75
2022/04/11 14:37:06;;;;;;;;;;;23.30;99.90;;;;;;5073524;28;19925;-75